Terminal Aerodrome Forecast
Issued by NWS Upton, NY

Home | Current Version | Previous Version | Text Only | Print | Product List | Glossary On
Versions: 1 2 3 4 5 6 7 8 9 10 11 12 13 14 15 16 17 18 19 20 21 22 23 24 25 26 27 28 29 30 31 32 33 34 35
000
FTUS41 KOKX 281429 AAB
TAFJFK
TAF AMD
KJFK 281429Z 2814/2918 18011KT P6SM BKN006
      TEMPO 2815/2816 SCT006 BKN050
     FM281700 19012G20KT P6SM SCT050 BKN250
     FM281900 19014G24KT P6SM VCTS BKN050CB BKN250
     FM282200 19013G20KT P6SM BKN050 BKN250
     FM290400 29008KT P6SM FEW100 BKN250
     FM290700 VRB05KT P6SM BKN250=

USA.gov is the U.S. government's official web portal to all federal, state and local government web resources and services.